Terminal Aerodrome Forecast
Issued by NWS

Home | Current Version | Previous Version | Text Only | Print | Product List | Glossary On
Versions: 1 2 3 4 5 6 7 8 9 10 11 12 13 14 15 16 17 18 19 20 21 22 23
000
FTUS44 KLIX 180540
TAFGPT
TAF
KGPT 180540Z 1806/1906 16006KT 1/2SM FG VV002
      TEMPO 1809/1813 1/4SM FG VV002
     FM181600 15005KT 1 1/2SM BR OVC003
     FM181800 16005KT P6SM BKN009
     FM182000 15008KT P6SM BKN015
     FM190000 14006KT 1SM BR OVC004=

USA.gov is the U.S. government's official web portal to all federal, state and local government web resources and services.